createdAt,value
2018-06-25T00:01:49.652Z,2.20
2018-06-25T00:04:20.202Z,2.20
2018-06-25T00:06:50.229Z,2.37
2018-06-25T00:09:20.861Z,2.20
2018-06-25T00:11:50.373Z,2.43
2018-06-25T00:14:20.007Z,2.10
2018-06-25T00:16:49.725Z,2.20
2018-06-25T00:19:19.526Z,2.53
2018-06-25T00:21:49.858Z,2.13
2018-06-25T00:24:19.889Z,2.30
2018-06-25T00:26:49.463Z,2.40
2018-06-25T00:29:19.234Z,2.70
2018-06-25T00:31:49.116Z,2.30
2018-06-25T00:34:18.722Z,2.53
2018-06-25T00:36:48.346Z,2.87
2018-06-25T00:39:18.110Z,2.40
2018-06-25T00:41:47.648Z,2.83
2018-06-25T00:44:17.155Z,2.50
2018-06-25T00:46:46.800Z,2.50
2018-06-25T00:49:17.904Z,2.57
2018-06-25T00:51:47.803Z,2.30
2018-06-25T00:54:17.406Z,2.50
2018-06-25T00:56:47.133Z,2.30
2018-06-25T00:59:27.454Z,2.63
2018-06-25T01:01:57.862Z,2.73
2018-06-25T01:04:27.344Z,2.40
2018-06-25T01:06:57.311Z,2.60
2018-06-25T01:09:27.366Z,2.70
2018-06-25T01:11:57.146Z,2.40
2018-06-25T01:14:27.296Z,2.70
2018-06-25T01:16:57.126Z,2.70
2018-06-25T01:19:27.215Z,2.90
2018-06-25T01:21:56.729Z,2.80
2018-06-25T01:24:26.835Z,2.90
2018-06-25T01:26:56.140Z,2.67
2018-06-25T01:29:26.346Z,2.60
2018-06-25T01:31:56.085Z,3.30
2018-06-25T01:34:25.714Z,2.53
2018-06-25T01:36:55.579Z,2.60
2018-06-25T01:39:25.434Z,2.80
2018-06-25T01:41:54.966Z,2.80
2018-06-25T01:44:24.451Z,2.70
2018-06-25T01:46:54.153Z,3.00
2018-06-25T01:49:24.101Z,2.70
2018-06-25T01:51:53.937Z,2.70
2018-06-25T01:54:24.691Z,2.87
2018-06-25T01:56:54.302Z,2.70
2018-06-25T01:59:24.012Z,3.00
2018-06-25T02:01:53.809Z,2.80
2018-06-25T02:04:23.335Z,2.93
2018-06-25T02:06:52.937Z,2.77
2018-06-25T02:09:22.377Z,2.80
2018-06-25T02:11:51.823Z,2.90
2018-06-25T02:14:21.577Z,2.90
2018-06-25T02:16:51.676Z,2.77
2018-06-25T02:19:21.474Z,2.70
2018-06-25T02:21:51.090Z,2.40
2018-06-25T02:24:20.692Z,2.70
2018-06-25T02:26:50.136Z,2.83
2018-06-25T02:29:19.894Z,3.30
2018-06-25T02:31:49.350Z,2.77
2018-06-25T02:34:19.398Z,2.63
2018-06-25T02:36:48.942Z,2.33
2018-06-25T02:39:18.537Z,2.80
2018-06-25T02:41:48.582Z,2.70
2018-06-25T02:44:18.430Z,2.90
2018-06-25T02:46:47.858Z,2.60
2018-06-25T02:49:17.445Z,2.97
2018-06-25T02:51:47.464Z,2.80
2018-06-25T02:54:17.675Z,2.90
2018-06-25T02:56:47.310Z,2.87
2018-06-25T02:59:16.809Z,3.00
2018-06-25T03:01:46.521Z,2.97
2018-06-25T03:04:16.297Z,3.23
2018-06-25T03:06:45.863Z,3.30
2018-06-25T03:09:15.454Z,3.10
2018-06-25T03:11:45.282Z,3.00
2018-06-25T03:14:15.696Z,3.20
2018-06-25T03:16:44.951Z,3.60
2018-06-25T03:20:05.129Z,3.50
2018-06-25T03:22:34.485Z,3.73
2018-06-25T03:25:04.165Z,3.53
2018-06-25T03:27:33.683Z,3.70
2018-06-25T03:30:03.335Z,4.10
2018-06-25T03:32:32.827Z,3.90
2018-06-25T03:35:03.100Z,3.90
2018-06-25T03:37:32.519Z,3.40
2018-06-25T03:40:02.364Z,3.20
2018-06-25T03:42:32.153Z,4.00
2018-06-25T03:45:01.896Z,3.30
2018-06-25T03:47:31.547Z,3.67
2018-06-25T03:50:01.065Z,3.40
2018-06-25T03:52:30.832Z,3.37
2018-06-25T03:55:00.367Z,3.10
2018-06-25T03:57:29.747Z,3.47
2018-06-25T03:59:59.263Z,3.73
2018-06-25T04:02:28.870Z,3.20
2018-06-25T04:04:58.631Z,3.20
2018-06-25T04:07:28.074Z,3.17
2018-06-25T04:09:57.537Z,3.37
2018-06-25T04:12:26.972Z,3.23
2018-06-25T04:14:57.410Z,3.10
2018-06-25T04:17:26.994Z,3.20
2018-06-25T04:19:56.500Z,3.20
2018-06-25T04:22:25.984Z,3.03
2018-06-25T04:24:56.221Z,2.83
2018-06-25T04:27:25.724Z,3.10
2018-06-25T04:29:55.251Z,3.50
2018-06-25T04:32:25.209Z,2.70
2018-06-25T04:34:54.791Z,3.37
2018-06-25T04:37:24.271Z,3.13
2018-06-25T04:39:53.657Z,3.40
2018-06-25T04:42:23.072Z,3.77
2018-06-25T04:44:52.525Z,3.30
2018-06-25T04:47:22.160Z,3.50
2018-06-25T04:49:54.097Z,3.30
2018-06-25T04:52:23.678Z,3.20
2018-06-25T04:54:53.071Z,3.17
2018-06-25T04:57:22.519Z,3.30
2018-06-25T04:59:52.113Z,2.83
2018-06-25T05:02:21.444Z,3.43
2018-06-25T05:04:50.971Z,3.40
2018-06-25T05:07:20.611Z,3.57
2018-06-25T05:09:50.289Z,3.57
2018-06-25T05:12:19.861Z,3.13
2018-06-25T05:14:49.391Z,2.70
2018-06-25T05:17:18.311Z,2.90
2018-06-25T05:19:47.873Z,2.90
2018-06-25T05:22:17.420Z,3.13
2018-06-25T05:24:46.821Z,3.40
2018-06-25T05:27:16.344Z,2.90
2018-06-25T05:29:45.746Z,3.00
2018-06-25T05:32:15.174Z,3.00
2018-06-25T05:34:44.703Z,3.00
2018-06-25T05:37:13.981Z,2.77
2018-06-25T05:39:43.610Z,2.87
2018-06-25T05:42:18.543Z,2.93
2018-06-25T05:44:48.079Z,3.03
2018-06-25T05:47:17.791Z,2.90
2018-06-25T05:49:47.280Z,3.10
2018-06-25T05:52:16.720Z,2.77
2018-06-25T05:54:46.329Z,2.60
2018-06-25T05:57:15.875Z,2.70
2018-06-25T05:59:45.488Z,2.80
2018-06-25T06:02:15.169Z,2.93
2018-06-25T06:04:45.342Z,3.23
2018-06-25T06:07:14.807Z,2.83
2018-06-25T06:09:44.327Z,2.90
2018-06-25T06:12:13.738Z,3.10
2018-06-25T06:14:43.666Z,3.20
2018-06-25T06:17:13.002Z,3.07
2018-06-25T06:19:42.466Z,2.93
2018-06-25T06:22:11.997Z,3.00
2018-06-25T06:24:41.514Z,2.77
2018-06-25T06:27:10.998Z,2.13
2018-06-25T06:29:40.600Z,2.93
2018-06-25T06:32:11.518Z,2.60
2018-06-25T06:34:41.310Z,2.33
2018-06-25T06:37:10.773Z,2.10
2018-06-25T06:39:40.264Z,2.10
2018-06-25T06:42:09.746Z,1.63
2018-06-25T06:44:39.331Z,2.00
2018-06-25T06:47:08.840Z,2.10
2018-06-25T06:49:38.261Z,1.77
2018-06-25T06:52:07.958Z,1.80
2018-06-25T06:54:37.505Z,2.10
2018-06-25T06:57:07.328Z,1.90
2018-06-25T06:59:36.929Z,2.10
2018-06-25T07:02:06.635Z,1.60
2018-06-25T07:04:36.250Z,1.80
2018-06-25T07:07:05.713Z,1.50
2018-06-25T07:09:34.879Z,1.60
2018-06-25T07:12:04.346Z,1.40
2018-06-25T07:14:33.876Z,1.67
2018-06-25T07:17:03.596Z,1.27
2018-06-25T07:19:33.876Z,1.10
2018-06-25T07:22:03.447Z,1.13
2018-06-25T07:24:33.701Z,1.30
2018-06-25T07:27:02.973Z,1.20
2018-06-25T07:29:32.556Z,1.13
2018-06-25T07:32:01.831Z,1.10
2018-06-25T07:34:30.653Z,1.00
2018-06-25T07:37:00.124Z,1.00
2018-06-25T07:39:29.596Z,0.80
2018-06-25T07:42:00.436Z,1.20
2018-06-25T07:44:30.075Z,1.10
2018-06-25T07:47:00.416Z,1.07
2018-06-25T07:49:30.109Z,1.03
2018-06-25T07:51:59.582Z,0.90
2018-06-25T07:54:29.046Z,0.70
2018-06-25T07:56:58.636Z,0.77
2018-06-25T07:59:28.147Z,0.60
2018-06-25T08:01:57.689Z,0.50
2018-06-25T08:04:27.169Z,0.70
2018-06-25T08:06:56.662Z,0.43
2018-06-25T08:09:26.083Z,0.73
2018-06-25T08:11:55.585Z,1.00
2018-06-25T08:14:24.886Z,1.03
2018-06-25T08:16:54.345Z,0.93
2018-06-25T08:19:24.003Z,1.00
2018-06-25T08:21:53.609Z,1.10
2018-06-25T08:24:23.536Z,1.37
2018-06-25T08:26:52.840Z,1.20
2018-06-25T08:29:22.494Z,1.10
2018-06-25T08:31:52.022Z,1.20
2018-06-25T08:34:21.616Z,1.00
2018-06-25T08:36:51.268Z,1.00
2018-06-25T08:39:20.628Z,1.20
2018-06-25T08:41:50.091Z,0.90
2018-06-25T08:44:19.704Z,0.90
2018-06-25T08:46:49.034Z,0.90
2018-06-25T08:49:18.500Z,0.90
2018-06-25T08:51:48.170Z,0.60
2018-06-25T08:54:17.498Z,0.70
2018-06-25T08:56:47.151Z,0.83
2018-06-25T08:59:16.611Z,1.00
2018-06-25T09:01:46.071Z,0.87
2018-06-25T09:04:15.730Z,0.90
2018-06-25T09:06:45.538Z,0.90
2018-06-25T09:09:15.170Z,0.80
2018-06-25T09:11:44.935Z,0.80
2018-06-25T09:14:14.544Z,0.70
2018-06-25T09:16:44.044Z,0.70
2018-06-25T09:19:14.438Z,0.80
2018-06-25T09:21:44.885Z,0.70
2018-06-25T09:24:14.256Z,0.70
2018-06-25T09:26:44.020Z,0.70
2018-06-25T09:29:13.432Z,0.73
2018-06-25T09:31:43.005Z,0.63
2018-06-25T09:34:17.715Z,0.70
2018-06-25T09:36:47.047Z,0.70
2018-06-25T09:39:16.483Z,1.10
2018-06-25T09:41:46.170Z,0.70
2018-06-25T09:44:14.973Z,0.90
2018-06-25T09:46:44.415Z,0.63
2018-06-25T09:49:13.904Z,0.50
2018-06-25T09:51:43.704Z,0.60
2018-06-25T09:54:13.053Z,0.50
2018-06-25T09:56:42.378Z,0.40
2018-06-25T09:59:13.534Z,0.43
2018-06-25T10:01:43.343Z,0.47
2018-06-25T10:04:12.892Z,0.50
2018-06-25T10:06:42.402Z,0.60
2018-06-25T10:09:12.905Z,0.50
2018-06-25T10:11:42.560Z,0.80
2018-06-25T10:14:11.919Z,0.50
2018-06-25T10:16:47.429Z,0.50
2018-06-25T10:19:17.031Z,0.60
2018-06-25T10:21:46.410Z,0.50
2018-06-25T10:24:16.898Z,0.50
2018-06-25T10:26:46.333Z,0.40
2018-06-25T10:29:16.537Z,0.40
2018-06-25T10:31:45.776Z,0.40
2018-06-25T10:34:15.202Z,0.30
2018-06-25T10:36:44.537Z,0.50
2018-06-25T10:39:14.168Z,0.40
2018-06-25T10:41:43.506Z,0.50
2018-06-25T10:44:12.923Z,0.40
2018-06-25T10:46:42.352Z,0.47
2018-06-25T10:49:11.836Z,1.40
2018-06-25T10:51:41.552Z,0.40
2018-06-25T10:54:11.028Z,0.50
2018-06-25T10:56:40.651Z,0.40
2018-06-25T10:59:10.232Z,0.50
2018-06-25T11:01:40.039Z,0.60
2018-06-25T11:04:09.605Z,0.60
2018-06-25T11:06:39.302Z,0.40
2018-06-25T11:09:10.763Z,0.50
2018-06-25T11:11:40.271Z,0.50
2018-06-25T11:14:09.981Z,0.50
2018-06-25T11:16:39.642Z,0.50
2018-06-25T11:19:08.988Z,0.50
2018-06-25T11:21:38.480Z,0.50
2018-06-25T11:24:08.132Z,0.57
2018-06-25T11:26:37.938Z,0.60
2018-06-25T11:29:07.579Z,0.40
2018-06-25T11:31:37.406Z,0.50
2018-06-25T11:34:07.003Z,0.60
2018-06-25T11:36:36.986Z,0.67
2018-06-25T11:39:09.898Z,0.50
2018-06-25T11:41:39.256Z,0.50
2018-06-25T11:44:12.864Z,0.50
2018-06-25T11:46:42.563Z,0.60
2018-06-25T11:49:16.960Z,0.60
2018-06-25T11:51:54.396Z,0.50
2018-06-25T11:54:27.733Z,0.60
2018-06-25T11:56:57.541Z,0.60
2018-06-25T11:59:28.793Z,0.40
2018-06-25T12:01:58.515Z,0.50
2018-06-25T12:04:28.569Z,0.57
2018-06-25T12:06:58.993Z,0.70
2018-06-25T12:09:28.594Z,0.60
2018-06-25T12:11:58.079Z,0.50
2018-06-25T12:14:27.569Z,0.57
2018-06-25T12:16:57.123Z,0.50
2018-06-25T12:19:26.685Z,0.60
2018-06-25T12:21:56.237Z,0.80
2018-06-25T12:24:25.810Z,0.57
2018-06-25T12:26:55.194Z,0.60
2018-06-25T12:29:24.851Z,0.53
2018-06-25T12:31:56.041Z,0.60
2018-06-25T12:34:26.916Z,0.70
2018-06-25T12:36:56.352Z,0.70
2018-06-25T12:39:44.470Z,0.60
2018-06-25T12:42:14.253Z,0.70
2018-06-25T12:44:44.895Z,0.70
2018-06-25T12:47:14.366Z,0.60
2018-06-25T12:49:43.926Z,0.50
2018-06-25T12:52:22.203Z,0.60
2018-06-25T12:54:52.043Z,0.70
2018-06-25T12:57:22.061Z,0.60
2018-06-25T12:59:51.417Z,0.70
2018-06-25T13:02:25.529Z,0.97
2018-06-25T13:04:55.673Z,0.70
2018-06-25T13:07:25.171Z,0.70
2018-06-25T13:09:54.971Z,0.80
2018-06-25T13:12:24.492Z,0.80
2018-06-25T13:15:01.617Z,0.57
2018-06-25T13:17:34.224Z,0.80
2018-06-25T13:20:04.930Z,0.53
2018-06-25T13:22:34.285Z,0.60
2018-06-25T13:25:04.105Z,0.50
2018-06-25T13:27:33.572Z,0.70
2018-06-25T13:30:03.968Z,0.80
2018-06-25T13:32:33.244Z,0.70
2018-06-25T13:35:03.470Z,0.70
2018-06-25T13:37:40.613Z,0.90
2018-06-25T13:40:10.053Z,0.60
2018-06-25T13:42:39.670Z,1.00
2018-06-25T13:45:10.164Z,0.87
2018-06-25T13:47:40.037Z,1.00
2018-06-25T13:50:09.478Z,0.70
2018-06-25T13:52:38.920Z,1.13
2018-06-25T13:55:08.638Z,0.70
2018-06-25T13:57:38.202Z,0.97
2018-06-25T14:00:08.200Z,0.80
2018-06-25T14:02:37.583Z,0.90
2018-06-25T14:05:07.290Z,1.00
2018-06-25T14:07:37.164Z,1.00
2018-06-25T14:10:07.029Z,1.20
2018-06-25T14:12:36.763Z,1.30
2018-06-25T14:15:07.238Z,1.20
2018-06-25T14:17:36.928Z,0.87
2018-06-25T14:20:06.358Z,0.90
2018-06-25T14:22:35.890Z,0.90
2018-06-25T14:25:05.698Z,1.00
2018-06-25T14:27:40.605Z,0.90
2018-06-25T14:30:16.877Z,1.00
2018-06-25T14:32:54.931Z,1.07
2018-06-25T14:35:24.870Z,1.37
2018-06-25T14:37:55.038Z,1.20
2018-06-25T14:40:24.722Z,0.90
2018-06-25T14:42:54.358Z,1.20
2018-06-25T14:45:23.994Z,1.20
2018-06-25T14:47:53.725Z,1.17
2018-06-25T14:50:24.768Z,1.30
2018-06-25T14:52:54.629Z,1.00
2018-06-25T14:55:24.577Z,1.03
2018-06-25T14:57:57.616Z,1.90
2018-06-25T15:00:27.324Z,1.00
2018-06-25T15:02:56.992Z,1.30
2018-06-25T15:05:26.558Z,1.37
2018-06-25T15:07:56.271Z,1.10
2018-06-25T15:10:26.288Z,1.37
2018-06-25T15:12:56.208Z,1.30
2018-06-25T15:15:26.682Z,1.33
2018-06-25T15:17:56.345Z,1.30
2018-06-25T15:20:26.541Z,1.53
2018-06-25T15:22:57.514Z,1.30
2018-06-25T15:25:32.277Z,1.17
2018-06-25T15:28:02.066Z,1.43
2018-06-25T15:30:31.949Z,1.23
2018-06-25T15:33:01.720Z,1.30
2018-06-25T15:35:31.322Z,1.20
2018-06-25T15:38:00.849Z,1.50
2018-06-25T15:40:30.928Z,1.33
2018-06-25T15:43:00.648Z,1.30
2018-06-25T15:45:30.368Z,1.40
2018-06-25T15:48:00.297Z,1.67
2018-06-25T15:50:30.202Z,1.60
2018-06-25T15:53:01.638Z,1.60
2018-06-25T15:55:31.393Z,1.40
2018-06-25T15:58:05.070Z,1.40
2018-06-25T16:00:34.958Z,1.50
2018-06-25T16:03:04.484Z,1.63
2018-06-25T16:05:34.171Z,1.80
2018-06-25T16:08:04.251Z,1.40
2018-06-25T16:10:33.927Z,1.30
2018-06-25T16:13:03.654Z,1.37
2018-06-25T16:15:32.717Z,1.57
2018-06-25T16:18:02.536Z,1.60
2018-06-25T16:20:32.282Z,1.50
2018-06-25T16:23:02.246Z,1.47
2018-06-25T16:28:22.224Z,1.30
2018-06-25T16:30:51.804Z,1.60
2018-06-25T16:33:21.423Z,1.50
2018-06-25T16:35:50.930Z,1.50
2018-06-25T16:38:20.532Z,1.50
2018-06-25T16:40:50.299Z,1.43
2018-06-25T16:43:19.880Z,1.30
2018-06-25T16:45:50.357Z,1.30
2018-06-25T16:48:19.923Z,1.47
2018-06-25T16:50:49.419Z,1.40
2018-06-25T16:53:19.046Z,1.50
2018-06-25T16:55:48.528Z,1.40
2018-06-25T16:58:18.288Z,1.33
2018-06-25T17:00:48.029Z,1.53
2018-06-25T17:03:17.766Z,1.80
2018-06-25T17:05:47.320Z,1.50
2018-06-25T17:08:17.110Z,1.53
2018-06-25T17:10:46.755Z,1.53
2018-06-25T17:13:16.650Z,1.20
2018-06-25T17:15:46.592Z,1.77
2018-06-25T17:18:16.240Z,1.83
2018-06-25T17:20:45.989Z,1.90
2018-06-25T17:23:15.801Z,1.60
2018-06-25T17:25:45.475Z,1.90
2018-06-25T17:28:15.137Z,1.50
2018-06-25T17:30:44.975Z,1.60
2018-06-25T17:33:14.697Z,1.60
2018-06-25T17:35:44.522Z,1.50
2018-06-25T17:38:14.084Z,1.40
2018-06-25T17:40:43.847Z,1.73
2018-06-25T17:43:13.678Z,1.30
2018-06-25T17:45:43.470Z,1.60
2018-06-25T17:48:13.030Z,1.80
2018-06-25T17:50:42.714Z,1.30
2018-06-25T17:53:13.238Z,1.60
2018-06-25T17:55:43.113Z,1.60
2018-06-25T17:58:12.879Z,1.53
2018-06-25T18:00:42.998Z,1.60
2018-06-25T18:03:12.714Z,1.70
2018-06-25T18:05:42.964Z,1.67
2018-06-25T18:08:12.939Z,1.50
2018-06-25T18:10:42.767Z,1.53
2018-06-25T18:13:12.903Z,1.73
2018-06-25T18:15:43.090Z,1.60
2018-06-25T18:18:12.904Z,1.60
2018-06-25T18:20:42.672Z,1.60
2018-06-25T18:23:11.910Z,1.50
2018-06-25T18:25:41.583Z,1.77
2018-06-25T18:28:11.191Z,1.80
2018-06-25T18:30:41.678Z,1.90
2018-06-25T18:33:11.397Z,1.67
2018-06-25T18:35:41.589Z,1.87
2018-06-25T18:38:11.326Z,1.77
2018-06-25T18:40:41.194Z,1.47
2018-06-25T18:43:11.063Z,1.90
2018-06-25T18:45:40.897Z,1.60
2018-06-25T18:48:10.830Z,1.73
2018-06-25T18:50:40.736Z,2.10
2018-06-25T18:53:10.358Z,1.93
2018-06-25T18:56:10.732Z,1.90
2018-06-25T18:58:40.513Z,1.80
2018-06-25T19:01:10.636Z,1.87
2018-06-25T19:03:40.452Z,1.77
2018-06-25T19:06:10.525Z,1.80
2018-06-25T19:08:40.295Z,2.00
2018-06-25T19:11:10.390Z,2.03
2018-06-25T19:13:40.286Z,1.73
2018-06-25T19:16:10.387Z,2.40
2018-06-25T19:18:40.286Z,2.00
2018-06-25T19:21:10.258Z,2.13
2018-06-25T19:23:41.739Z,2.23
2018-06-25T19:26:11.759Z,2.00
2018-06-25T19:28:41.932Z,1.97
2018-06-25T19:31:11.706Z,2.87
2018-06-25T19:33:41.902Z,2.20
2018-06-25T19:36:11.776Z,7.70
2018-06-25T19:38:41.698Z,2.77
2018-06-25T19:41:12.397Z,2.30
2018-06-25T19:43:42.129Z,4.30
2018-06-25T19:46:12.009Z,2.10
2018-06-25T19:48:41.952Z,2.27
2018-06-25T19:51:13.039Z,2.17
2018-06-25T19:53:42.742Z,3.50
2018-06-25T19:56:12.528Z,2.53
2018-06-25T19:58:42.423Z,2.10
2018-06-25T20:01:12.304Z,2.50
2018-06-25T20:03:41.987Z,2.17
2018-06-25T20:06:12.075Z,2.20
2018-06-25T20:08:41.967Z,2.33
2018-06-25T20:11:11.672Z,2.83
2018-06-25T20:13:41.387Z,3.20
2018-06-25T20:16:11.167Z,2.43
2018-06-25T20:18:41.034Z,2.80
2018-06-25T20:21:10.828Z,2.80
2018-06-25T20:23:41.902Z,2.60
2018-06-25T20:26:13.350Z,2.80
2018-06-25T20:28:43.912Z,3.20
2018-06-25T20:31:14.262Z,3.07
2018-06-25T20:33:44.538Z,3.00
2018-06-25T20:36:14.617Z,3.40
2018-06-25T20:38:46.535Z,2.20
2018-06-25T20:41:16.360Z,2.83
2018-06-25T20:43:46.320Z,2.93
2018-06-25T20:46:15.922Z,2.97
2018-06-25T20:48:45.844Z,3.40
2018-06-25T20:51:15.439Z,3.03
2018-06-25T20:53:45.191Z,3.07
2018-06-25T20:56:14.710Z,3.03
2018-06-25T20:58:44.164Z,2.80
2018-06-25T21:01:14.112Z,2.97
2018-06-25T21:03:43.700Z,2.77
2018-06-25T21:06:13.471Z,4.03
2018-06-25T21:08:43.126Z,3.00
2018-06-25T21:11:13.765Z,2.80
2018-06-25T21:13:43.789Z,2.93
2018-06-25T21:16:13.200Z,3.13
2018-06-25T21:18:42.801Z,2.80
2018-06-25T21:21:12.590Z,2.80
2018-06-25T21:23:42.218Z,2.80
2018-06-25T21:26:11.957Z,3.20
2018-06-25T21:28:41.783Z,2.73
2018-06-25T21:31:11.128Z,2.90
2018-06-25T21:33:40.577Z,3.20
2018-06-25T21:36:10.275Z,2.80
2018-06-25T21:38:39.612Z,3.17
2018-06-25T21:41:09.996Z,2.90
2018-06-25T21:43:39.968Z,2.80
2018-06-25T21:46:10.125Z,3.13
2018-06-25T21:48:39.608Z,3.30
2018-06-25T21:51:09.373Z,2.83
2018-06-25T21:53:39.243Z,2.90
2018-06-25T21:56:08.879Z,2.50
2018-06-25T21:58:38.261Z,2.90
2018-06-25T22:01:08.285Z,3.13
2018-06-25T22:03:37.806Z,2.83
2018-06-25T22:06:07.567Z,3.03
2018-06-25T22:08:37.119Z,3.07
2018-06-25T22:11:06.900Z,2.97
2018-06-25T22:13:36.392Z,3.07
2018-06-25T22:16:06.124Z,3.53
2018-06-25T22:18:35.717Z,2.90
2018-06-25T22:21:05.699Z,3.33
2018-06-25T22:23:35.175Z,2.87
2018-06-25T22:26:04.802Z,2.80
2018-06-25T22:28:34.359Z,3.30
2018-06-25T22:31:04.330Z,3.10
2018-06-25T22:33:33.859Z,3.27
2018-06-25T22:36:03.661Z,3.37
2018-06-25T22:38:33.336Z,3.30
2018-06-25T22:41:02.745Z,3.23
2018-06-25T22:43:32.247Z,3.73
2018-06-25T22:46:01.282Z,3.37
2018-06-25T22:48:30.634Z,3.50
2018-06-25T22:50:59.955Z,3.20
2018-06-25T22:53:29.626Z,3.30
2018-06-25T22:55:59.541Z,3.10
2018-06-25T22:58:28.969Z,3.50
2018-06-25T23:00:58.689Z,3.20
2018-06-25T23:03:28.176Z,3.50
2018-06-25T23:05:57.205Z,3.40
2018-06-25T23:08:27.706Z,3.40
2018-06-25T23:10:57.516Z,3.23
2018-06-25T23:13:27.481Z,4.17
2018-06-25T23:15:57.127Z,2.93
2018-06-25T23:18:26.495Z,3.87
2018-06-25T23:20:56.038Z,3.60
2018-06-25T23:23:25.546Z,2.97
2018-06-25T23:25:55.049Z,3.30
2018-06-25T23:28:24.561Z,3.57
2018-06-25T23:30:54.233Z,3.00
2018-06-25T23:33:24.107Z,3.50
2018-06-25T23:35:53.779Z,3.17
2018-06-25T23:38:23.209Z,3.53
2018-06-25T23:40:52.955Z,3.40
2018-06-25T23:43:22.620Z,3.50
2018-06-25T23:45:52.196Z,3.57
2018-06-25T23:48:21.794Z,2.90
2018-06-25T23:50:51.167Z,3.20
2018-06-25T23:53:20.636Z,3.70
2018-06-25T23:55:50.223Z,3.30
2018-06-25T23:58:19.694Z,3.23
